Bamboo, North Carolina
Current Conditions -  °F | °C
As of 6:55 AM on Friday 28 Nov 2014 (Local Time) from KTNB Reporting Station
Scattered Clouds Scattered Clouds  
Wind Chill:   Ceiling: Unl
Heat Index: 21°   Visibility: 10mi
Dew Point: 14°   Wind: 13mph
Humidity: 73%   Direction: 320°NW
Pressure: 30.22"   Gusts: 16mph
Location:  36.0473°N, 81.8148°W
Report Text: KTNB 281155Z AUTO 32011G14KT 10SM SCT022 M06/M10 A3022 RMK AO2 T10601102 11050 21061
Loading
Personal Weather Stations






























Interactive Weather Map New forecast layout! Learn more

10-Day Weather Forecast

Advertisements
Track Severe Weather on mobile